CYFBCYTE

Guest
Details From CYFB - Iqaluit
To CYTE - Cape Dorset
Flight Number -
Tags generated
Created
Modified
Stats Distance 214 nm / 396 km
Max Altitude 5,000 ft / 1,524 m
Waypoints 4
Social Downloads 0
Likes 0
Share VATSIM

Download

Looking for another format? Having issues loading an existing format? Contact us
Advertisement - Login to hide

Notes

Basic altitude profile: - Ascent Rate: 2500ft/min - Ascent Speed: 250kts - Cruise Altitude: 35000ft - Cruise Speed: 420kts - Descent Rate: 1500ft/min - Descent Speed: 250kts Options: - Use NATs: yes - Use PACOTS: yes - Use low airways: yes - Use high airways: yes

Route

CYFB YFY RR4 YTE CYTE

ID Type Via Altitude Latitude Longitude Leg Dist Tot Dist Heading (true) Name
O CYFB APT - 0 ft / 0 m 63.75657˚ -68.55606˚ - 0 nm - Iqaluit
YFY NDB - 500 ft / 152 m 63.73333˚ -68.54806˚ 1 nm 1 nm 171° / 171° FROBAY NDB
YTE NDB RR4 (AWY-LO) 5,000 ft / 1,524 m 64.22861˚ -76.52806˚ 212 nm 213 nm 282° / 274° CAPE DORSET NDB
O CYTE APT - 0 ft / 0 m 64.23024˚ -76.52487˚ 0 nm 213 nm 40° / 40° Cape Dorset

Altitude Profile

Advertisement - Login to hide

Weather


0- 5 10 15 20 25 30 35+ Temperature / ° C

Clouds and Precipitation
Forecast for 2017-12-12 06:00 UTC. Updated an hour ago

Ground ~20,000 ft ~40,000 ft Winds

CYFB

Details ICAO CYFB (YFB)
Name Iqaluit
Region Canada
Timezone America/Iqaluit (UTC-5.0)
Stats Elevation 110 ft / 34 m (AMSL)
Location 63.756565° -68.556058°
Runways 1
Magnetic Variation 27.545° W

METAR

CYFB 120400Z 29004KT 10SM -SN OVC018 M14/M17 A2941 RMK SC8 SLP966

Decode

TAF

TAF TAF AMD CYFB 120211Z 1202/1224 VRB03KT P6SM -SN OVC020 TEMPO 1202/1215 32012KT P6SM NSW OVC030 FM121500 VRB03KT P6SM BKN030 RMK NXT FCST BY 120600Z

Decode

Departure Runways

ID Width Length Bearing (true) Bearing (mag) Surface Threshold Offset Overrun Length
17 200 ft / 61 m 8,605 ft / 2,623 m 135.58° 163.13° Asphalt 0 ft / 0 m 210 ft / 64 m
35 200 ft / 61 m 8,605 ft / 2,623 m 315.62° 343.17° Asphalt 0 ft / 0 m 243 ft / 74 m

CYTE

Details ICAO CYTE (YTE)
Name Cape Dorset
Region Canada
Timezone America/Iqaluit (UTC-5.0)
Stats Elevation 164 ft / 50 m (AMSL)
Location 64.230235° -76.524873°
Runways 1
Magnetic Variation 24.633° W

METAR

CYTE 120400Z AUTO 28008KT 230V300 9SM -SN BKN013 M16/M18 A2949 RMK SLP992

Decode

TAF

TAF TAF CYTE 120038Z 1201/1213 30010KT P6SM SCT030 BKN080 TEMPO 1201/1213 3SM -SN OVC020 RMK FCST BASED ON AUTO OBS. NXT FCST BY 120700Z

Decode

Destination Runways

ID Width Length Bearing (true) Bearing (mag) Surface Threshold Offset Overrun Length
13T 98 ft / 30 m 3,973 ft / 1,211 m 127.39° 152.02° Gravel 0 ft / 0 m 0 ft / 0 m
31T 98 ft / 30 m 3,973 ft / 1,211 m 307.41° 332.04° Gravel 0 ft / 0 m 0 ft / 0 m

Popular Alternatives